createdAt,value
2018-04-10T00:00:17.150Z,66.87
2018-04-10T00:01:17.216Z,67.16
2018-04-10T00:02:17.276Z,67.09
2018-04-10T00:03:17.157Z,67.3
2018-04-10T00:04:17.143Z,67.58
2018-04-10T00:05:17.195Z,67.29
2018-04-10T00:06:17.211Z,67.68
2018-04-10T00:07:17.200Z,67.29
2018-04-10T00:08:17.191Z,67.6
2018-04-10T00:09:17.180Z,67.37
2018-04-10T00:10:17.162Z,66.98
2018-04-10T00:11:17.172Z,67.99
2018-04-10T00:12:17.198Z,68
2018-04-10T00:13:17.182Z,67.61
2018-04-10T00:14:17.195Z,66.88
2018-04-10T00:15:17.187Z,68.25
2018-04-10T00:16:17.200Z,67.83
2018-04-10T00:17:17.286Z,68.56
2018-04-10T00:18:17.200Z,67.83
2018-04-10T00:19:17.219Z,68.09
2018-04-10T00:20:17.223Z,67.92
2018-04-10T00:21:17.208Z,68.26
2018-04-10T00:22:17.301Z,68.54
2018-04-10T00:23:17.213Z,68.72
2018-04-10T00:24:17.212Z,67.65
2018-04-10T00:25:17.240Z,68.15
2018-04-10T00:26:17.221Z,67.55
2018-04-10T00:27:17.257Z,66.94
2018-04-10T00:28:17.249Z,67.1
2018-04-10T00:29:17.233Z,67.46
2018-04-10T00:30:17.223Z,67.19
2018-04-10T00:31:17.268Z,67.11
2018-04-10T00:32:17.265Z,68.26
2018-04-10T00:33:17.243Z,67.81
2018-04-10T00:34:17.373Z,66.97
2018-04-10T00:35:17.239Z,67
2018-04-10T00:36:17.256Z,67.1
2018-04-10T00:37:17.306Z,68.77
2018-04-10T00:38:17.276Z,68.8
2018-04-10T00:39:17.268Z,67.42
2018-04-10T00:40:17.274Z,68
2018-04-10T00:41:17.313Z,67.76
2018-04-10T00:42:17.300Z,67.67
2018-04-10T00:43:17.277Z,69.57
2018-04-10T00:44:17.337Z,69.08
2018-04-10T00:45:17.285Z,69.11
2018-04-10T00:46:17.285Z,68.96
2018-04-10T00:47:17.319Z,69.58
2018-04-10T00:48:17.300Z,69.02
2018-04-10T00:49:17.288Z,68.3
2018-04-10T00:50:17.316Z,68.87
2018-04-10T00:51:17.295Z,69.04
2018-04-10T00:52:17.307Z,69.13
2018-04-10T00:53:17.309Z,68.41
2018-04-10T00:54:17.306Z,68.1
2018-04-10T00:55:17.302Z,68.99
2018-04-10T00:56:17.313Z,69.88
2018-04-10T00:57:17.341Z,69.42
2018-04-10T00:58:17.370Z,69.82
2018-04-10T00:59:17.336Z,69.93
2018-04-10T01:00:17.369Z,69.46
2018-04-10T01:01:17.331Z,69.92
2018-04-10T01:02:17.323Z,69.72
2018-04-10T01:03:17.335Z,69.43
2018-04-10T01:04:17.333Z,69.72
2018-04-10T01:05:17.337Z,69.89
2018-04-10T01:06:17.359Z,69.68
2018-04-10T01:07:17.362Z,69
2018-04-10T01:08:17.376Z,69.45
2018-04-10T01:09:17.350Z,69.08
2018-04-10T01:10:17.398Z,69.46
2018-04-10T01:11:17.364Z,70.61
2018-04-10T01:12:17.370Z,70.77
2018-04-10T01:13:17.359Z,71.12
2018-04-10T01:14:17.356Z,71.13
2018-04-10T01:15:17.384Z,70.99
2018-04-10T01:16:17.376Z,71.29
2018-04-10T01:17:17.402Z,71.28
2018-04-10T01:18:17.526Z,70.57
2018-04-10T01:19:17.401Z,70.88
2018-04-10T01:20:17.394Z,70.37
2018-04-10T01:21:17.442Z,70.53
2018-04-10T01:22:17.419Z,69.5
2018-04-10T01:23:17.412Z,69.28
2018-04-10T01:24:17.434Z,70.31
2018-04-10T01:25:17.437Z,69.75
2018-04-10T01:26:17.445Z,69.72
2018-04-10T01:27:17.459Z,69.84
2018-04-10T01:28:17.570Z,69.53
2018-04-10T01:29:17.418Z,69.14
2018-04-10T01:30:17.432Z,69.09
2018-04-10T01:31:17.439Z,69.05
2018-04-10T01:32:17.433Z,69.52
2018-04-10T01:33:17.441Z,69.49
2018-04-10T01:34:17.450Z,69.02
2018-04-10T01:35:17.439Z,69.34
2018-04-10T01:36:17.621Z,69.22
2018-04-10T01:37:17.456Z,68.86
2018-04-10T01:38:17.455Z,69.49
2018-04-10T01:39:17.469Z,68.93
2018-04-10T01:40:17.515Z,69.9
2018-04-10T01:41:17.441Z,69.31
2018-04-10T01:42:17.664Z,69.16
2018-04-10T01:43:17.510Z,69.39
2018-04-10T01:44:17.474Z,69.6
2018-04-10T01:45:17.597Z,69.45
2018-04-10T01:46:17.472Z,69.46
2018-04-10T01:47:17.690Z,69.61
2018-04-10T01:48:17.472Z,69.42
2018-04-10T01:49:17.535Z,71.49
2018-04-10T01:50:17.465Z,72.12
2018-04-10T01:51:17.487Z,72.25
2018-04-10T01:52:17.479Z,71.98
2018-04-10T01:53:17.485Z,72.31
2018-04-10T01:54:17.503Z,72.22
2018-04-10T01:55:17.542Z,72.14
2018-04-10T01:56:17.570Z,71.68
2018-04-10T01:57:17.599Z,71.28
2018-04-10T01:58:17.520Z,71.42
2018-04-10T01:59:17.522Z,70.58
2018-04-10T02:00:17.554Z,71.13
2018-04-10T02:01:17.513Z,70.97
2018-04-10T02:02:17.533Z,70.27
2018-04-10T02:03:17.529Z,70.84
2018-04-10T02:04:17.536Z,70.42
2018-04-10T02:05:17.530Z,71.04
2018-04-10T02:06:17.536Z,72.04
2018-04-10T02:07:17.531Z,72.16
2018-04-10T02:08:17.681Z,72.39
2018-04-10T02:09:17.547Z,72.65
2018-04-10T02:10:17.576Z,72.33
2018-04-10T02:11:17.560Z,71.79
2018-04-10T02:12:17.615Z,71.73
2018-04-10T02:13:17.551Z,72.36
2018-04-10T02:14:17.567Z,71.6
2018-04-10T02:15:17.581Z,71.94
2018-04-10T02:16:17.597Z,71.65
2018-04-10T02:17:17.587Z,72.18
2018-04-10T02:18:17.611Z,72.24
2018-04-10T02:19:17.615Z,72.74
2018-04-10T02:20:17.588Z,71.76
2018-04-10T02:21:17.581Z,71.68
2018-04-10T02:22:17.601Z,70.92
2018-04-10T02:23:17.612Z,70.94
2018-04-10T02:24:17.592Z,71.18
2018-04-10T02:25:17.595Z,70.92
2018-04-10T02:26:17.597Z,71.26
2018-04-10T02:27:17.638Z,71.17
2018-04-10T02:28:17.613Z,70.93
2018-04-10T02:29:17.627Z,71.27
2018-04-10T02:30:17.596Z,71.56
2018-04-10T02:31:17.615Z,71.68
2018-04-10T02:32:17.614Z,72.09
2018-04-10T02:33:17.625Z,72.71
2018-04-10T02:34:17.658Z,72.31
2018-04-10T02:35:17.641Z,71.55
2018-04-10T02:36:17.647Z,72.56
2018-04-10T02:37:17.621Z,72.47
2018-04-10T02:38:17.681Z,72.69
2018-04-10T02:39:17.805Z,72.04
2018-04-10T02:40:17.683Z,72.99
2018-04-10T02:41:17.666Z,72.43
2018-04-10T02:42:17.963Z,72.23
2018-04-10T02:43:17.652Z,72.16
2018-04-10T02:44:17.662Z,72.77
2018-04-10T02:45:17.682Z,72.86
2018-04-10T02:46:17.796Z,73.99
2018-04-10T02:47:17.766Z,73.35
2018-04-10T02:48:17.668Z,73.04
2018-04-10T02:49:17.647Z,72.21
2018-04-10T02:50:17.833Z,73.22
2018-04-10T02:51:17.682Z,72.56
2018-04-10T02:52:17.736Z,72.35
2018-04-10T02:53:17.691Z,72.67
2018-04-10T02:54:17.690Z,72.4
2018-04-10T02:55:17.695Z,71.78
2018-04-10T02:56:17.698Z,73.34
2018-04-10T02:57:17.711Z,72.65
2018-04-10T02:58:17.710Z,73.63
2018-04-10T02:59:17.726Z,73.41
2018-04-10T03:00:17.695Z,72.73
2018-04-10T03:01:17.702Z,73.1
2018-04-10T03:02:17.713Z,72.86
2018-04-10T03:03:17.721Z,72.83
2018-04-10T03:04:17.764Z,72.84
2018-04-10T03:05:17.698Z,72.3
2018-04-10T03:06:17.707Z,72.44
2018-04-10T03:07:17.730Z,71.96
2018-04-10T03:08:17.894Z,72.1
2018-04-10T03:09:17.774Z,72.66
2018-04-10T03:10:17.737Z,72.87
2018-04-10T03:11:17.733Z,73.21
2018-04-10T03:12:17.741Z,72.97
2018-04-10T03:13:17.792Z,73.32
2018-04-10T03:14:17.739Z,72.15
2018-04-10T03:15:17.759Z,73.34
2018-04-10T03:16:17.799Z,72.95
2018-04-10T03:17:17.760Z,72.43
2018-04-10T03:18:17.836Z,72.07
2018-04-10T03:19:17.767Z,71.58
2018-04-10T03:20:17.767Z,71.95
2018-04-10T03:21:17.762Z,73.01
2018-04-10T03:22:17.775Z,72.36
2018-04-10T03:23:17.778Z,72.66
2018-04-10T03:24:17.785Z,72.74
2018-04-10T03:25:17.785Z,71.93
2018-04-10T03:26:17.792Z,72.45
2018-04-10T03:27:17.796Z,73.08
2018-04-10T03:28:17.772Z,72.58
2018-04-10T03:29:17.782Z,72.81
2018-04-10T03:30:17.805Z,72.77
2018-04-10T03:31:17.791Z,73.02
2018-04-10T03:32:17.799Z,72.08
2018-04-10T03:33:17.793Z,72.13
2018-04-10T03:34:17.846Z,73.02
2018-04-10T03:35:17.833Z,73.17
2018-04-10T03:36:17.804Z,72.59
2018-04-10T03:37:17.816Z,73.12
2018-04-10T03:38:17.821Z,73.32
2018-04-10T03:39:17.833Z,73.45
2018-04-10T03:40:17.828Z,72.28
2018-04-10T03:41:17.816Z,73.43
2018-04-10T03:42:17.866Z,73.38
2018-04-10T03:43:17.950Z,72.97
2018-04-10T03:44:17.845Z,73.57
2018-04-10T03:45:17.851Z,73.75
2018-04-10T03:46:17.877Z,73.33
2018-04-10T03:47:17.935Z,73.46
2018-04-10T03:48:17.859Z,73
2018-04-10T03:49:17.851Z,73.41
2018-04-10T03:50:17.896Z,72.57
2018-04-10T03:51:17.876Z,72.84
2018-04-10T03:52:17.979Z,72.99
2018-04-10T03:53:17.945Z,72.6
2018-04-10T03:54:17.895Z,73.82
2018-04-10T03:55:17.863Z,73.24
2018-04-10T03:56:17.889Z,73.11
2018-04-10T03:57:17.881Z,72.44
2018-04-10T03:58:17.867Z,71.92
2018-04-10T03:59:17.980Z,72.06
2018-04-10T04:00:17.902Z,72.53
2018-04-10T04:01:17.879Z,73.27
2018-04-10T04:02:17.910Z,73.46
2018-04-10T04:03:17.880Z,73.16
2018-04-10T04:04:17.913Z,73.17
2018-04-10T04:05:17.892Z,72.94
2018-04-10T04:06:17.901Z,73.17
2018-04-10T04:07:17.908Z,72.61
2018-04-10T04:08:17.901Z,72.89
2018-04-10T04:09:17.932Z,73.24
2018-04-10T04:10:17.905Z,72.98
2018-04-10T04:11:17.921Z,71.95
2018-04-10T04:12:17.906Z,72.3
2018-04-10T04:13:17.922Z,72.56
2018-04-10T04:14:17.925Z,72.58
2018-04-10T04:15:17.928Z,72.88
2018-04-10T04:16:17.938Z,72.97
2018-04-10T04:17:17.930Z,73.51
2018-04-10T04:18:17.945Z,73.04
2018-04-10T04:19:17.958Z,73.28
2018-04-10T04:20:17.934Z,73.3
2018-04-10T04:21:17.940Z,73.15
2018-04-10T04:22:17.949Z,73.58
2018-04-10T04:23:18.046Z,72.69
2018-04-10T04:24:17.949Z,72.68
2018-04-10T04:25:17.943Z,73.23
2018-04-10T04:26:17.968Z,72.77
2018-04-10T04:27:17.980Z,72.17
2018-04-10T04:28:17.961Z,73.35
2018-04-10T04:29:17.991Z,73.45
2018-04-10T04:30:18.030Z,74.07
2018-04-10T04:31:18.033Z,74.96
2018-04-10T04:32:18.044Z,74.78
2018-04-10T04:33:17.968Z,74.18
2018-04-10T04:34:18.324Z,73.59
2018-04-10T04:35:18.045Z,73.87
2018-04-10T04:36:18.002Z,74.53
2018-04-10T04:37:18.021Z,73.94
2018-04-10T04:38:17.983Z,72.82
2018-04-10T04:39:18.078Z,73.87
2018-04-10T04:40:17.995Z,73.42
2018-04-10T04:41:18.173Z,73.95
2018-04-10T04:42:18.044Z,74.21
2018-04-10T04:43:18.003Z,74.21
2018-04-10T04:44:18.072Z,73.77
2018-04-10T04:45:18.001Z,73.95
2018-04-10T04:46:18.027Z,74.24
2018-04-10T04:47:18.223Z,73.95
2018-04-10T04:48:18.036Z,73.61
2018-04-10T04:49:18.058Z,73.84
2018-04-10T04:50:18.042Z,73.58
2018-04-10T04:51:18.075Z,74.05
2018-04-10T04:52:18.059Z,74.11
2018-04-10T04:53:18.094Z,74.4
2018-04-10T04:54:18.169Z,74.53
2018-04-10T04:55:18.083Z,74.03
2018-04-10T04:56:18.124Z,73.28
2018-04-10T04:57:18.150Z,73.31
2018-04-10T04:58:18.073Z,74.06
2018-04-10T04:59:18.074Z,74.36
2018-04-10T05:00:18.100Z,74.71
2018-04-10T05:01:18.094Z,74.43
2018-04-10T05:02:18.177Z,74.67
2018-04-10T05:03:18.076Z,74.48
2018-04-10T05:04:18.121Z,74.63
2018-04-10T05:05:18.095Z,74.3
2018-04-10T05:06:18.091Z,73.92
2018-04-10T05:07:18.118Z,73.58
2018-04-10T05:08:18.223Z,73.88
2018-04-10T05:09:18.110Z,74.7
2018-04-10T05:10:18.104Z,74.27
2018-04-10T05:11:18.138Z,74.92
2018-04-10T05:12:18.172Z,74.87
2018-04-10T05:13:18.300Z,74.7
2018-04-10T05:14:18.137Z,74.75
2018-04-10T05:15:18.136Z,74.87
2018-04-10T05:16:18.139Z,73.73
2018-04-10T05:17:18.197Z,74.21
2018-04-10T05:18:18.134Z,74.29
2018-04-10T05:19:18.160Z,73.53
2018-04-10T05:20:18.114Z,74.58
2018-04-10T05:21:18.210Z,74.06
2018-04-10T05:22:18.172Z,74.35
2018-04-10T05:23:18.155Z,73.87
2018-04-10T05:24:18.122Z,73.29
2018-04-10T05:25:18.112Z,73.24
2018-04-10T05:26:18.164Z,73.38
2018-04-10T05:27:18.205Z,74.57
2018-04-10T05:28:18.237Z,73.95
2018-04-10T05:29:18.173Z,73.4
2018-04-10T05:30:18.168Z,75.01
2018-04-10T05:31:18.186Z,73.95
2018-04-10T05:32:18.209Z,73.73
2018-04-10T05:33:18.191Z,73.14
2018-04-10T05:34:18.264Z,73.06
2018-04-10T05:35:18.154Z,74.03
2018-04-10T05:36:18.217Z,74.11
2018-04-10T05:37:18.251Z,74.31
2018-04-10T05:38:18.203Z,73.67
2018-04-10T05:39:18.325Z,73.64
2018-04-10T05:40:18.187Z,74.63
2018-04-10T05:41:18.194Z,73.75
2018-04-10T05:42:18.246Z,73.62
2018-04-10T05:43:18.323Z,74.71
2018-04-10T05:44:18.209Z,74.32
2018-04-10T05:45:18.208Z,74.5
2018-04-10T05:46:18.232Z,73.82
2018-04-10T05:47:18.262Z,73.38
2018-04-10T05:48:18.257Z,73.43
2018-04-10T05:49:18.220Z,73.45
2018-04-10T05:50:18.210Z,73.19
2018-04-10T05:51:18.245Z,73.23
2018-04-10T05:52:18.271Z,73.07
2018-04-10T05:53:18.268Z,74.2
2018-04-10T05:54:18.237Z,73.38
2018-04-10T05:55:18.239Z,73.29
2018-04-10T05:56:18.249Z,73.65
2018-04-10T05:57:18.254Z,73.93
2018-04-10T05:58:18.282Z,73.37
2018-04-10T05:59:18.251Z,73.77
2018-04-10T06:00:18.267Z,74.36
2018-04-10T06:01:18.261Z,74.35
2018-04-10T06:02:18.280Z,73.77
2018-04-10T06:03:18.299Z,73.43
2018-04-10T06:04:18.287Z,74.36
2018-04-10T06:05:18.271Z,73.79
2018-04-10T06:06:18.275Z,73.35
2018-04-10T06:07:18.255Z,73.98
2018-04-10T06:08:18.260Z,74.14
2018-04-10T06:09:18.263Z,73.72
2018-04-10T06:10:18.283Z,73.53
2018-04-10T06:11:18.297Z,73.68
2018-04-10T06:12:18.290Z,74.09
2018-04-10T06:13:18.315Z,73.49
2018-04-10T06:14:18.316Z,73.59
2018-04-10T06:15:18.305Z,73.7
2018-04-10T06:16:18.272Z,73.9
2018-04-10T06:17:18.324Z,74.01
2018-04-10T06:18:18.327Z,74.13
2018-04-10T06:19:18.304Z,74.03
2018-04-10T06:20:18.370Z,73.9
2018-04-10T06:21:18.356Z,73.48
2018-04-10T06:22:18.311Z,73.63
2018-04-10T06:23:18.332Z,74.37
2018-04-10T06:24:18.354Z,73.95
2018-04-10T06:25:18.353Z,74.1
2018-04-10T06:26:18.339Z,73.99
2018-04-10T06:27:18.338Z,73.24
2018-04-10T06:28:18.335Z,73.17
2018-04-10T06:29:18.438Z,74.11
2018-04-10T06:30:18.411Z,73.97
2018-04-10T06:31:18.329Z,73.56
2018-04-10T06:32:18.350Z,73.3
2018-04-10T06:33:18.368Z,73.18
2018-04-10T06:34:18.365Z,73.22
2018-04-10T06:35:18.352Z,73.41
2018-04-10T06:36:18.325Z,73.5
2018-04-10T06:37:18.740Z,74.09
2018-04-10T06:38:18.394Z,74.23
2018-04-10T06:39:18.353Z,74.04
2018-04-10T06:40:18.480Z,73.54
2018-04-10T06:41:18.396Z,73.06
2018-04-10T06:42:18.376Z,73.17
2018-04-10T06:43:18.473Z,73.31
2018-04-10T06:44:18.411Z,73.09
2018-04-10T06:45:18.423Z,72.47
2018-04-10T06:46:18.439Z,72.75
2018-04-10T06:47:18.381Z,72.01
2018-04-10T06:48:18.390Z,72.65
2018-04-10T06:49:18.487Z,73.43
2018-04-10T06:50:18.483Z,74.18
2018-04-10T06:51:18.413Z,74.38
2018-04-10T06:52:18.408Z,74.23
2018-04-10T06:53:18.465Z,74.79
2018-04-10T06:54:18.421Z,74.29
2018-04-10T06:55:18.423Z,74.58
2018-04-10T06:56:18.524Z,74.08
2018-04-10T06:57:18.427Z,73.74
2018-04-10T06:58:18.454Z,73.41
2018-04-10T06:59:18.413Z,73.62
2018-04-10T07:00:18.424Z,73.72
2018-04-10T07:01:18.415Z,73.76
2018-04-10T07:02:18.531Z,73.13
2018-04-10T07:03:18.476Z,73.54
2018-04-10T07:04:18.434Z,74.69
2018-04-10T07:05:18.506Z,74.7
2018-04-10T07:06:18.458Z,75.19
2018-04-10T07:07:18.454Z,74.54
2018-04-10T07:08:18.437Z,75.41
2018-04-10T07:09:18.478Z,75.27
2018-04-10T07:10:18.503Z,74.82
2018-04-10T07:11:18.444Z,75.16
2018-04-10T07:12:18.469Z,74.63
2018-04-10T07:13:18.664Z,75.08
2018-04-10T07:14:18.514Z,74.83
2018-04-10T07:15:18.478Z,74.99
2018-04-10T07:16:18.453Z,74.6
2018-04-10T07:17:18.468Z,73.77
2018-04-10T07:18:18.479Z,74.81
2018-04-10T07:19:18.504Z,74.03
2018-04-10T07:20:18.494Z,73.25
2018-04-10T07:21:18.553Z,73.2
2018-04-10T07:22:18.516Z,73.85
2018-04-10T07:23:18.540Z,73.7
2018-04-10T07:24:18.498Z,73.45
2018-04-10T07:25:18.507Z,73.7
2018-04-10T07:26:18.511Z,73.19
2018-04-10T07:27:18.495Z,72.98
2018-04-10T07:28:18.556Z,73.51
2018-04-10T07:29:18.518Z,73.6
2018-04-10T07:30:18.543Z,72.86
2018-04-10T07:31:18.536Z,72.99
2018-04-10T07:32:18.616Z,72.49
2018-04-10T07:33:18.528Z,72.3
2018-04-10T07:34:18.542Z,72.32
2018-04-10T07:35:18.543Z,71.94
2018-04-10T07:36:18.537Z,71.94
2018-04-10T07:37:18.551Z,71.55
2018-04-10T07:38:18.594Z,71.85
2018-04-10T07:39:18.526Z,71.25
2018-04-10T07:40:18.592Z,71.78
2018-04-10T07:41:18.604Z,71.79
2018-04-10T07:42:18.574Z,71.74
2018-04-10T07:43:18.566Z,70.49
2018-04-10T07:44:18.548Z,70.25
2018-04-10T07:45:18.722Z,70.06
2018-04-10T07:46:18.632Z,70.49
2018-04-10T07:47:18.607Z,70.38
2018-04-10T07:48:18.555Z,70.6
2018-04-10T07:49:18.564Z,70.33
2018-04-10T07:50:18.653Z,70.53
2018-04-10T07:51:18.582Z,70.68
2018-04-10T07:52:18.634Z,70.4
2018-04-10T07:53:18.590Z,70.2
2018-04-10T07:54:18.600Z,69.42
2018-04-10T07:55:18.585Z,69.39
2018-04-10T07:56:18.615Z,68.41
2018-04-10T07:57:18.621Z,69.51
2018-04-10T07:58:18.628Z,69.98
2018-04-10T07:59:18.634Z,69.93
2018-04-10T08:00:18.640Z,69.7
2018-04-10T08:01:18.647Z,69.65
2018-04-10T08:02:18.595Z,69.54
2018-04-10T08:03:18.903Z,69.35
2018-04-10T08:04:18.729Z,68.96
2018-04-10T08:05:18.691Z,68.83
2018-04-10T08:06:18.631Z,68.91
2018-04-10T08:07:18.708Z,69
2018-04-10T08:08:18.629Z,69.13
2018-04-10T08:09:18.684Z,68.93
2018-04-10T08:10:18.641Z,69.29
2018-04-10T08:11:18.685Z,69.08
2018-04-10T08:12:18.632Z,69.2
2018-04-10T08:13:18.658Z,69.04
2018-04-10T08:14:18.635Z,69.2
2018-04-10T08:15:18.641Z,68.78
2018-04-10T08:16:18.679Z,68.61
2018-04-10T08:17:18.650Z,68.5
2018-04-10T08:18:18.655Z,68.46
2018-04-10T08:19:18.660Z,68.72
2018-04-10T08:20:18.651Z,68.27
2018-04-10T08:21:18.663Z,68.37
2018-04-10T08:22:18.820Z,68.45
2018-04-10T08:23:18.688Z,68.15
2018-04-10T08:24:18.678Z,67.84
2018-04-10T08:25:18.669Z,67.87
2018-04-10T08:26:18.717Z,68.16
2018-04-10T08:27:18.681Z,67.92
2018-04-10T08:28:18.674Z,67.95
2018-04-10T08:29:18.723Z,67.9
2018-04-10T08:30:18.712Z,68.15
2018-04-10T08:31:18.718Z,67.61
2018-04-10T08:32:18.702Z,67.27
2018-04-10T08:33:18.722Z,67.26
2018-04-10T08:34:18.719Z,66.6
2018-04-10T08:35:18.714Z,66.7
2018-04-10T08:36:18.890Z,67.27
2018-04-10T08:37:18.724Z,66.96
2018-04-10T08:38:18.767Z,66.85
2018-04-10T08:39:18.801Z,66.77
2018-04-10T08:40:18.725Z,66.97
2018-04-10T08:41:18.773Z,67.19
2018-04-10T08:42:18.715Z,67.14
2018-04-10T08:43:18.737Z,67.1
2018-04-10T08:44:18.738Z,67.31
2018-04-10T08:45:18.734Z,67.49
2018-04-10T08:46:18.741Z,66.57
2018-04-10T08:47:18.739Z,65.45
2018-04-10T08:48:18.738Z,65.46
2018-04-10T08:49:18.740Z,64.73
2018-04-10T08:50:18.870Z,65.31
2018-04-10T08:51:18.749Z,65.53
2018-04-10T08:52:22.324Z,64.87
2018-04-10T08:53:21.032Z,65.33
2018-04-10T08:54:23.624Z,64.84
2018-04-10T08:55:21.655Z,63.71
2018-04-10T08:56:18.809Z,63.72
2018-04-10T08:57:18.789Z,64
2018-04-10T08:58:18.777Z,64.6
2018-04-10T08:59:18.802Z,65
2018-04-10T09:00:18.813Z,63.54
2018-04-10T09:01:18.832Z,63.2
2018-04-10T09:02:18.811Z,63.05
2018-04-10T09:03:18.830Z,63.57
2018-04-10T09:04:18.810Z,63.6
2018-04-10T09:05:18.855Z,63.29
2018-04-10T09:06:18.800Z,63.03
2018-04-10T09:07:18.831Z,63.7
2018-04-10T09:08:18.806Z,63.88
2018-04-10T09:09:19.183Z,63.94
2018-04-10T09:10:18.840Z,63.6
2018-04-10T09:11:18.809Z,63.6
2018-04-10T09:12:18.916Z,63.4
2018-04-10T09:13:18.849Z,63.56
2018-04-10T09:14:18.832Z,63.63
2018-04-10T09:15:18.874Z,63.65
2018-04-10T09:16:19.010Z,63.81
2018-04-10T09:17:18.861Z,63.53
2018-04-10T09:18:18.855Z,62.91
2018-04-10T09:19:18.845Z,62.64
2018-04-10T09:20:18.850Z,62.57
2018-04-10T09:21:18.855Z,62.56
2018-04-10T09:22:19.097Z,62.5
2018-04-10T09:23:18.891Z,62.42
2018-04-10T09:24:18.862Z,62.42
2018-04-10T09:25:18.860Z,61.99
2018-04-10T09:26:18.875Z,62.41
2018-04-10T09:27:18.943Z,62.78
2018-04-10T09:28:18.869Z,62.66
2018-04-10T09:29:18.869Z,63
2018-04-10T09:30:18.914Z,62.71
2018-04-10T09:31:18.879Z,62.47
2018-04-10T09:32:18.905Z,61.51
2018-04-10T09:33:18.880Z,61.78
2018-04-10T09:34:18.920Z,61.92
2018-04-10T09:35:18.939Z,61.87
2018-04-10T09:36:18.921Z,62.24
2018-04-10T09:37:18.911Z,62.34
2018-04-10T09:38:19.013Z,62.57
2018-04-10T09:39:18.891Z,62.84
2018-04-10T09:40:18.908Z,62.6
2018-04-10T09:41:18.918Z,62.85
2018-04-10T09:42:18.930Z,62.63
2018-04-10T09:43:19.259Z,62.74
2018-04-10T09:44:18.948Z,62.66
2018-04-10T09:45:18.934Z,62.49
2018-04-10T09:46:19.027Z,63.09
2018-04-10T09:47:19.032Z,63.17
2018-04-10T09:48:19.075Z,61.69
2018-04-10T09:49:18.952Z,61.57
2018-04-10T09:50:18.956Z,61.65
2018-04-10T09:51:19.034Z,60.77
2018-04-10T09:52:18.949Z,61.13
2018-04-10T09:53:18.953Z,61.48
2018-04-10T09:54:18.955Z,61.64
2018-04-10T09:55:18.965Z,61.83
2018-04-10T09:56:19.100Z,61.45
2018-04-10T09:57:18.955Z,61.47
2018-04-10T09:58:18.973Z,62.05
2018-04-10T09:59:18.956Z,61.64
2018-04-10T10:00:18.983Z,61.63
2018-04-10T10:01:19.052Z,61.41
2018-04-10T10:02:19.004Z,60.81
2018-04-10T10:03:19.105Z,60.93
2018-04-10T10:04:19.025Z,60.79
2018-04-10T10:05:19.001Z,60.99
2018-04-10T10:06:19.045Z,61.18
2018-04-10T10:07:18.959Z,60.63
2018-04-10T10:08:18.995Z,61.2
2018-04-10T10:09:18.975Z,61.04
2018-04-10T10:10:18.987Z,60.77
2018-04-10T10:11:19.064Z,61.47
2018-04-10T10:12:18.995Z,60.94
2018-04-10T10:13:19.060Z,60.86
2018-04-10T10:14:19.057Z,60.41
2018-04-10T10:15:19.067Z,60.89
2018-04-10T10:16:19.027Z,60.85
2018-04-10T10:17:19.033Z,60.8
2018-04-10T10:18:19.150Z,60.74
2018-04-10T10:19:19.030Z,61.28
2018-04-10T10:20:19.021Z,60.42
2018-04-10T10:21:19.035Z,59.23
2018-04-10T10:22:19.055Z,58.36
2018-04-10T10:23:19.060Z,59.19
2018-04-10T10:24:19.062Z,60
2018-04-10T10:25:19.080Z,59.88
2018-04-10T10:26:19.042Z,59.69
2018-04-10T10:27:19.047Z,59.42
2018-04-10T10:28:19.094Z,59.72
2018-04-10T10:29:19.058Z,59.03
2018-04-10T10:30:19.044Z,59.19
2018-04-10T10:31:19.097Z,59.44
2018-04-10T10:32:19.067Z,56.89
2018-04-10T10:33:19.097Z,56.8
2018-04-10T10:34:19.072Z,56.57
2018-04-10T10:35:19.079Z,56.23
2018-04-10T10:36:19.073Z,56.03
2018-04-10T10:37:19.090Z,56.92
2018-04-10T10:38:19.115Z,56.42
2018-04-10T10:39:19.104Z,56.73
2018-04-10T10:40:19.114Z,56.62
2018-04-10T10:41:19.307Z,55.99
2018-04-10T10:42:19.087Z,56.59
2018-04-10T10:43:19.121Z,56.01
2018-04-10T10:44:19.100Z,56.1
2018-04-10T10:45:19.126Z,55.83
2018-04-10T10:46:19.110Z,55.75
2018-04-10T10:47:19.108Z,55.96
2018-04-10T10:48:19.131Z,54.81
2018-04-10T10:49:19.121Z,53.73
2018-04-10T10:50:19.131Z,53.35
2018-04-10T10:51:19.130Z,53.65
2018-04-10T10:52:19.244Z,54.29
2018-04-10T10:53:19.160Z,54
2018-04-10T10:54:19.155Z,52.58
2018-04-10T10:55:19.147Z,53.69
2018-04-10T10:56:19.140Z,53.97
2018-04-10T10:57:19.188Z,53.86
2018-04-10T10:58:19.179Z,53.06
2018-04-10T10:59:19.174Z,51.89
2018-04-10T11:00:19.200Z,51.1
2018-04-10T11:01:19.186Z,50.39
2018-04-10T11:02:19.148Z,49.95
2018-04-10T11:03:19.169Z,51.05
2018-04-10T11:04:19.153Z,51.79
2018-04-10T11:05:19.197Z,52.21
2018-04-10T11:06:19.187Z,52.05
2018-04-10T11:07:19.211Z,52.07
2018-04-10T11:08:19.162Z,52.62
2018-04-10T11:09:19.238Z,52.18
2018-04-10T11:10:19.240Z,52.78
2018-04-10T11:11:19.299Z,53.46
2018-04-10T11:12:19.246Z,52
2018-04-10T11:13:19.176Z,52.17
2018-04-10T11:14:19.200Z,53.11
2018-04-10T11:15:19.229Z,51.13
2018-04-10T11:16:19.215Z,50.97
2018-04-10T11:17:19.224Z,51.78
2018-04-10T11:18:19.245Z,52.18
2018-04-10T11:19:19.217Z,52.89
2018-04-10T11:20:19.230Z,53.45
2018-04-10T11:21:19.228Z,52.61
2018-04-10T11:22:19.199Z,52.38
2018-04-10T11:23:19.203Z,52.93
2018-04-10T11:24:19.228Z,53.46
2018-04-10T11:25:19.261Z,52.58
2018-04-10T11:26:19.227Z,53.39
2018-04-10T11:27:19.289Z,52.34
2018-04-10T11:28:19.236Z,52.17
2018-04-10T11:29:19.239Z,51.11
2018-04-10T11:30:19.244Z,51.25
2018-04-10T11:31:19.252Z,51.91
2018-04-10T11:32:19.239Z,51.55
2018-04-10T11:33:19.246Z,51.79
2018-04-10T11:34:19.254Z,50.87
2018-04-10T11:35:19.268Z,51.05
2018-04-10T11:36:19.253Z,51.36
2018-04-10T11:37:19.255Z,52.29
2018-04-10T11:38:19.264Z,51.93
2018-04-10T11:39:19.259Z,51.35
2018-04-10T11:40:19.301Z,50.52
2018-04-10T11:41:19.309Z,51
2018-04-10T11:42:19.274Z,51.13
2018-04-10T11:43:19.288Z,50.69
2018-04-10T11:44:19.291Z,49.52
2018-04-10T11:45:19.280Z,50.48
2018-04-10T11:46:19.310Z,50.6
2018-04-10T11:47:19.317Z,51.04
2018-04-10T11:48:19.334Z,50.09
2018-04-10T11:49:19.325Z,50.36
2018-04-10T11:50:19.429Z,50.12
2018-04-10T11:51:19.456Z,50.32
2018-04-10T11:52:19.321Z,49.96
2018-04-10T11:53:19.351Z,49.9
2018-04-10T11:54:19.334Z,50.3
2018-04-10T11:55:19.328Z,49.66
2018-04-10T11:56:19.356Z,49.39
2018-04-10T11:57:19.332Z,49.62
2018-04-10T11:58:19.338Z,49.28
2018-04-10T11:59:19.721Z,47.73
2018-04-10T12:00:19.373Z,47.09
2018-04-10T12:01:19.359Z,47.03
2018-04-10T12:02:19.449Z,47.5
2018-04-10T12:03:19.518Z,47.51
2018-04-10T12:04:19.367Z,47.51
2018-04-10T12:05:19.350Z,47.42
2018-04-10T12:06:19.333Z,47.52
2018-04-10T12:07:19.351Z,47.5
2018-04-10T12:08:19.369Z,47.52
2018-04-10T12:09:19.381Z,47.52
2018-04-10T12:10:19.369Z,47.66
2018-04-10T12:11:19.376Z,48.23
2018-04-10T12:12:19.386Z,47.9
2018-04-10T12:13:19.399Z,47.65
2018-04-10T12:14:19.392Z,47.67
2018-04-10T12:15:19.370Z,48.1
2018-04-10T12:16:19.376Z,47.95
2018-04-10T12:17:19.375Z,47.9
2018-04-10T12:18:19.380Z,47.7
2018-04-10T12:19:19.515Z,48.39
2018-04-10T12:20:19.381Z,48.45
2018-04-10T12:21:19.475Z,48.68
2018-04-10T12:22:19.369Z,48.69
2018-04-10T12:23:19.438Z,48.54
2018-04-10T12:24:19.526Z,48.3
2018-04-10T12:25:19.388Z,48.54
2018-04-10T12:26:19.392Z,48.4
2018-04-10T12:27:19.424Z,48.65
2018-04-10T12:28:19.428Z,47.76
2018-04-10T12:29:19.453Z,47.54
2018-04-10T12:30:19.450Z,48.27
2018-04-10T12:31:19.451Z,48.04
2018-04-10T12:32:19.405Z,47.82
2018-04-10T12:33:19.457Z,48.59
2018-04-10T12:34:19.440Z,47.52
2018-04-10T12:35:19.430Z,47.18
2018-04-10T12:36:19.516Z,47.24
2018-04-10T12:37:19.443Z,47.41
2018-04-10T12:38:19.481Z,46.89
2018-04-10T12:39:19.511Z,47.44
2018-04-10T12:40:19.441Z,47.54
2018-04-10T12:41:19.476Z,47.47
2018-04-10T12:42:19.463Z,47.42
2018-04-10T12:43:19.445Z,47.68
2018-04-10T12:44:19.500Z,47.12
2018-04-10T12:45:19.484Z,47.35
2018-04-10T12:46:19.490Z,47.12
2018-04-10T12:47:19.491Z,47.2
2018-04-10T12:48:19.470Z,47.38
2018-04-10T12:49:19.502Z,47.14
2018-04-10T12:50:19.510Z,47.23
2018-04-10T12:51:19.575Z,47.41
2018-04-10T12:52:19.606Z,47.22
2018-04-10T12:53:19.611Z,47.53
2018-04-10T12:54:19.511Z,47.7
2018-04-10T12:55:19.499Z,46.69
2018-04-10T12:56:19.571Z,47.04